Time;durP1;ratioP1;P1;durP2;ratioP2;P2;SDS_P1;SDS_P2;PMS_P1;PMS_P2;Temp;Humidity;BMP_temperature;BMP_pressure;BME280_temperature;BME280_humidity;BME280_pressure;Samples;Min_cycle;Max_cycle;Signal;HPM_P1;HPM_P2
2021/04/12 00:01:47;;;;;;;10.40;3.88;;;1.00;93.70;;;;;;5045119;28;20056;-42
2021/04/12 00:04:28;;;;;;;6.35;3.40;;;1.00;93.50;;;;;;5044676;28;20063;-44
2021/04/12 00:07:17;;;;;;;10.80;3.88;;;0.90;93.40;;;;;;5047375;28;20049;-44
2021/04/12 00:10:18;;;;;;;7.65;3.42;;;0.90;93.40;;;;;;5049391;28;20410;-44
2021/04/12 00:12:55;;;;;;;7.07;3.72;;;0.80;92.90;;;;;;5041555;28;20048;-44
2021/04/12 00:15:29;;;;;;;6.32;3.50;;;0.80;93.30;;;;;;5046886;28;20053;-43
2021/04/12 00:18:01;;;;;;;12.93;3.78;;;0.80;93.70;;;;;;5046532;28;20515;-43
2021/04/12 00:20:43;;;;;;;7.38;3.10;;;0.80;93.80;;;;;;5047021;28;20060;-43
2021/04/12 00:23:29;;;;;;;7.27;3.97;;;0.70;93.40;;;;;;5047289;28;20493;-42
2021/04/12 00:26:11;;;;;;;6.60;3.50;;;0.70;93.60;;;;;;5045577;28;20299;-44
2021/04/12 00:28:46;;;;;;;10.95;4.10;;;0.70;93.80;;;;;;5048194;28;20052;-43
2021/04/12 00:31:26;;;;;;;7.45;3.55;;;0.70;93.90;;;;;;5049912;28;20040;-45
2021/04/12 00:33:58;;;;;;;9.98;3.83;;;0.60;93.70;;;;;;5046977;28;20052;-44
2021/04/12 00:36:40;;;;;;;6.00;3.50;;;0.60;93.80;;;;;;5046672;28;20471;-45
2021/04/12 00:39:14;;;;;;;9.70;3.90;;;0.60;93.90;;;;;;5046889;28;20056;-43
2021/04/12 00:42:19;;;;;;;6.97;3.47;;;0.50;93.80;;;;;;5048124;28;20056;-43
2021/04/12 00:45:12;;;;;;;9.75;4.22;;;0.50;93.40;;;;;;5040575;28;20048;-45
2021/04/12 00:47:47;;;;;;;9.30;3.95;;;0.40;93.40;;;;;;5047123;28;20164;-43
2021/04/12 00:50:52;;;;;;;10.05;4.18;;;0.50;94.10;;;;;;5047311;28;20041;-44
2021/04/12 00:53:45;;;;;;;9.23;4.70;;;0.40;93.70;;;;;;5042451;28;20049;-44
2021/04/12 00:56:21;;;;;;;10.85;4.30;;;0.40;93.90;;;;;;5047034;28;20049;-45
2021/04/12 00:59:00;;;;;;;6.95;4.22;;;0.30;93.60;;;;;;5040682;28;20060;-43
2021/04/12 01:01:52;;;;;;;9.20;4.63;;;0.40;93.80;;;;;;5045705;28;20417;-44
2021/04/12 01:04:31;;;;;;;8.05;3.95;;;0.40;94.00;;;;;;5046053;28;20057;-43
2021/04/12 01:07:24;;;;;;;11.10;4.50;;;0.40;94.40;;;;;;5045799;28;20064;-45
2021/04/12 01:10:17;;;;;;;7.25;4.25;;;0.30;94.40;;;;;;5046260;28;20148;-45
2021/04/12 01:13:02;;;;;;;7.65;4.68;;;0.30;94.30;;;;;;5044515;28;20041;-43
2021/04/12 01:15:59;;;;;;;10.65;4.47;;;0.30;94.10;;;;;;5045640;28;20083;-43
2021/04/12 01:18:33;;;;;;;12.30;4.53;;;0.30;93.80;;;;;;5046081;28;20045;-43
2021/04/12 01:21:08;;;;;;;13.23;5.38;;;0.30;93.90;;;;;;5045856;28;20082;-41
2021/04/12 01:23:55;;;;;;;11.35;4.70;;;0.30;93.90;;;;;;5046586;28;20057;-45
2021/04/12 01:26:42;;;;;;;10.63;4.50;;;0.30;94.10;;;;;;5032017;28;20048;-43
2021/04/12 01:29:44;;;;;;;7.18;4.05;;;0.30;94.10;;;;;;5045922;28;20045;-44
2021/04/12 01:32:37;;;;;;;9.57;4.30;;;0.20;94.00;;;;;;5045705;28;20463;-43
2021/04/12 01:35:17;;;;;;;8.15;4.28;;;0.30;94.60;;;;;;5045475;28;20130;-44
2021/04/12 01:37:54;;;;;;;9.63;4.50;;;0.20;94.50;;;;;;5046133;28;20143;-43
2021/04/12 01:40:32;;;;;;;11.88;5.35;;;0.20;94.50;;;;;;5049785;28;20056;-43
2021/04/12 01:43:26;;;;;;;13.73;5.55;;;0.20;94.30;;;;;;5045852;28;20147;-44
2021/04/12 01:46:12;;;;;;;7.78;4.18;;;0.20;94.50;;;;;;5046228;28;20059;-43
2021/04/12 01:48:39;;;;;;;9.27;4.53;;;0.20;94.50;;;;;;5036250;28;20128;-43
2021/04/12 01:51:35;;;;;;;11.27;4.38;;;0.20;94.30;;;;;;5045101;28;20052;-44
2021/04/12 01:54:41;;;;;;;5.75;4.25;;;0.20;94.10;;;;;;5033062;28;20068;-42
2021/04/12 01:57:19;;;;;;;11.60;5.05;;;0.20;94.20;;;;;;5022642;28;20119;-43
2021/04/12 02:00:12;;;;;;;10.43;5.03;;;0.30;94.70;;;;;;5022203;28;20045;-44
2021/04/12 02:03:07;;;;;;;9.27;4.80;;;0.30;94.70;;;;;;5022434;28;20053;-44
2021/04/12 02:06:00;;;;;;;10.20;4.97;;;0.40;94.70;;;;;;5022594;28;20391;-41
2021/04/12 02:08:53;;;;;;;11.27;4.90;;;0.40;94.60;;;;;;5022084;28;20045;-42
2021/04/12 02:11:33;;;;;;;8.45;4.72;;;0.30;94.80;;;;;;5022391;28;20045;-43
2021/04/12 02:14:08;;;;;;;8.48;5.13;;;0.20;94.60;;;;;;5022382;28;20049;-42
2021/04/12 02:17:09;;;;;;;8.98;4.40;;;0.20;94.80;;;;;;5022554;28;20073;-41
2021/04/12 02:19:47;;;;;;;10.13;4.32;;;0.20;94.70;;;;;;5022886;28;20511;-42
2021/04/12 02:22:56;;;;;;;12.55;4.35;;;0.10;94.40;;;;;;5022151;28;20060;-41
2021/04/12 02:25:32;;;;;;;10.10;4.63;;;0.10;94.30;;;;;;4954806;28;20081;-42
2021/04/12 02:28:19;;;;;;;7.97;4.03;;;0.00;94.20;;;;;;4962544;28;20065;-42
2021/04/12 02:31:21;;;;;;;8.32;4.60;;;0.00;94.10;;;;;;4966342;28;20057;-43
2021/04/12 02:34:23;;;;;;;8.85;4.00;;;0.00;94.50;;;;;;4978298;28;20046;-42
2021/04/12 02:37:22;;;;;;;11.38;5.13;;;0.00;94.60;;;;;;5005864;28;20353;-42
2021/04/12 02:40:13;;;;;;;11.40;5.53;;;-0.10;94.80;;;;;;5005784;28;20050;-41
2021/04/12 02:43:02;;;;;;;8.30;4.32;;;0.00;94.80;;;;;;5006368;28;20054;-42
2021/04/12 02:45:45;;;;;;;7.10;5.00;;;0.00;94.70;;;;;;5005849;28;20058;-42
2021/04/12 02:48:35;;;;;;;7.72;4.60;;;0.00;94.90;;;;;;5002848;28;20053;-43
2021/04/12 02:51:28;;;;;;;6.95;4.80;;;0.00;94.70;;;;;;5010225;28;20050;-43
2021/04/12 02:54:19;;;;;;;9.85;4.88;;;0.00;94.70;;;;;;5012500;28;20057;-42
2021/04/12 02:56:53;;;;;;;8.73;4.50;;;0.10;94.80;;;;;;5012645;28;20510;-43
2021/04/12 02:59:56;;;;;;;12.10;4.90;;;0.20;94.70;;;;;;5005859;28;20525;-42
2021/04/12 03:02:56;;;;;;;6.50;3.65;;;0.20;95.10;;;;;;5032207;28;20051;-42
2021/04/12 03:05:25;;;;;;;8.75;4.22;;;0.30;95.00;;;;;;5048175;28;20374;-43
2021/04/12 03:08:30;;;;;;;14.50;4.80;;;0.30;94.70;;;;;;5049891;28;20049;-43
2021/04/12 03:11:21;;;;;;;8.50;4.10;;;0.20;94.60;;;;;;5025301;28;20060;-42
2021/04/12 03:14:11;;;;;;;9.70;4.03;;;0.20;94.60;;;;;;5024553;28;20050;-42
2021/04/12 03:16:57;;;;;;;7.18;4.13;;;0.10;95.00;;;;;;5024842;28;20107;-42
2021/04/12 03:19:56;;;;;;;5.85;3.75;;;0.10;94.70;;;;;;5025399;28;20143;-41
2021/04/12 03:22:57;;;;;;;10.00;3.80;;;0.00;94.50;;;;;;5026934;28;20907;-43
2021/04/12 03:25:50;;;;;;;8.68;4.15;;;-0.10;94.50;;;;;;5017256;28;20148;-46
2021/04/12 03:28:29;;;;;;;10.30;4.18;;;-0.10;94.70;;;;;;5027745;28;20143;-43
2021/04/12 03:31:13;;;;;;;7.60;4.10;;;-0.20;94.50;;;;;;5024228;28;20068;-41
2021/04/12 03:34:21;;;;;;;7.97;4.47;;;-0.20;94.70;;;;;;5024881;28;20094;-43
2021/04/12 03:37:32;;;;;;;12.05;4.50;;;-0.20;94.70;;;;;;4965927;28;20433;-42
2021/04/12 03:40:19;;;;;;;10.90;4.75;;;-0.20;94.70;;;;;;4907724;29;20634;-40
2021/04/12 03:43:04;;;;;;;11.60;3.95;;;-0.30;94.80;;;;;;4908237;29;20052;-42
2021/04/12 03:45:54;;;;;;;8.98;4.10;;;-0.40;94.60;;;;;;4907250;29;20072;-42
2021/04/12 03:48:31;;;;;;;9.75;4.28;;;-0.40;94.60;;;;;;4897317;29;20401;-43
2021/04/12 03:51:01;;;;;;;10.82;4.35;;;-0.40;94.50;;;;;;4908037;29;20056;-42
2021/04/12 03:53:40;;;;;;;9.82;5.03;;;-0.40;94.80;;;;;;4908260;29;20056;-41
2021/04/12 03:56:24;;;;;;;11.23;4.47;;;-0.40;94.70;;;;;;4912422;29;20096;-42
2021/04/12 03:59:10;;;;;;;4.95;3.88;;;-0.40;94.60;;;;;;4903165;29;20055;-41
2021/04/12 04:02:15;;;;;;;10.43;4.40;;;-0.50;94.60;;;;;;4908198;29;20135;-42
2021/04/12 04:05:02;;;;;;;6.95;3.70;;;-0.50;94.70;;;;;;4908224;29;20048;-41
2021/04/12 04:07:59;;;;;;;11.50;5.10;;;-0.50;95.10;;;;;;4926039;29;20062;-42
2021/04/12 04:10:52;;;;;;;7.35;4.43;;;-0.50;95.10;;;;;;4976115;28;20076;-41
2021/04/12 04:14:04;;;;;;;9.23;4.70;;;-0.50;94.90;;;;;;5021946;28;20084;-43
2021/04/12 04:16:53;;;;;;;9.00;4.85;;;-0.50;94.90;;;;;;5030537;28;20175;-42
2021/04/12 04:19:47;;;;;;;9.65;4.65;;;-0.40;95.10;;;;;;5023156;28;20256;-43
2021/04/12 04:22:40;;;;;;;10.45;5.18;;;-0.40;95.30;;;;;;5023836;28;20054;-43
2021/04/12 04:25:29;;;;;;;10.25;4.82;;;-0.40;95.50;;;;;;5023545;28;20196;-44
2021/04/12 04:28:32;;;;;;;6.63;4.28;;;-0.30;95.90;;;;;;5022932;28;20049;-41
2021/04/12 04:31:37;;;;;;;7.72;4.32;;;-0.30;96.00;;;;;;5018061;28;20509;-42
2021/04/12 04:34:21;;;;;;;10.70;4.65;;;-0.30;95.90;;;;;;5020620;28;20132;-42
2021/04/12 04:37:20;;;;;;;8.40;4.90;;;-0.20;96.10;;;;;;5023081;28;20623;-41
2021/04/12 04:40:06;;;;;;;7.70;4.93;;;-0.30;95.70;;;;;;5007160;28;20601;-44
2021/04/12 04:43:04;;;;;;;10.07;4.97;;;-0.20;96.10;;;;;;5031762;28;20044;-43
2021/04/12 04:46:09;;;;;;;9.77;5.10;;;-0.20;96.00;;;;;;5046861;28;20099;-41
2021/04/12 04:48:44;;;;;;;10.98;5.72;;;-0.20;95.90;;;;;;5049930;28;20045;-41
2021/04/12 04:51:43;;;;;;;10.32;4.72;;;-0.20;96.10;;;;;;5046384;28;20148;-43
2021/04/12 04:54:33;;;;;;;7.05;4.47;;;-0.10;96.40;;;;;;5051416;28;20048;-43
2021/04/12 04:57:08;;;;;;;12.70;5.53;;;-0.10;96.30;;;;;;5051744;28;20045;-42
2021/04/12 05:00:15;;;;;;;11.77;5.45;;;-0.10;96.10;;;;;;5049001;28;20053;-43
2021/04/12 05:03:32;;;;;;;10.20;5.10;;;-0.10;96.10;;;;;;5024788;28;20422;-42
2021/04/12 05:06:29;;;;;;;11.13;5.50;;;0.00;96.00;;;;;;4991773;28;20077;-43
2021/04/12 05:09:23;;;;;;;8.15;4.60;;;0.00;96.00;;;;;;4986861;28;20426;-42
2021/04/12 05:12:14;;;;;;;7.30;4.53;;;0.10;96.00;;;;;;4981726;28;20093;-40
2021/04/12 05:14:58;;;;;;;10.27;5.35;;;0.20;96.30;;;;;;4995242;28;20050;-39
2021/04/12 05:18:09;;;;;;;7.78;4.90;;;0.30;96.40;;;;;;4987737;28;20838;-38
2021/04/12 05:21:01;;;;;;;9.38;4.90;;;0.30;96.70;;;;;;4989777;28;20613;-37
2021/04/12 05:23:47;;;;;;;11.02;4.97;;;0.40;96.20;;;;;;4990968;28;20053;-38
2021/04/12 05:26:25;;;;;;;7.97;4.75;;;0.40;96.00;;;;;;4994638;28;20057;-38
2021/04/12 05:28:59;;;;;;;9.23;4.97;;;0.40;95.90;;;;;;4993576;28;20080;-38
2021/04/12 05:31:56;;;;;;;5.93;4.30;;;0.50;95.90;;;;;;4995098;28;20095;-38
2021/04/12 05:34:59;;;;;;;10.27;5.50;;;0.60;95.80;;;;;;4989969;28;20104;-38
2021/04/12 05:37:54;;;;;;;6.30;5.13;;;0.50;95.70;;;;;;4997966;28;20058;-38
2021/04/12 05:40:48;;;;;;;7.28;4.15;;;0.50;95.70;;;;;;5004499;28;20046;-38
2021/04/12 05:43:35;;;;;;;8.30;4.57;;;0.60;95.90;;;;;;5043002;28;20681;-39
2021/04/12 05:46:30;;;;;;;7.63;4.43;;;0.80;95.70;;;;;;5042293;28;20045;-38
2021/04/12 05:49:14;;;;;;;5.78;3.67;;;1.00;95.60;;;;;;5042955;28;20056;-38
2021/04/12 05:52:01;;;;;;;29.90;15.48;;;1.20;95.10;;;;;;5042636;28;20045;-40
2021/04/12 05:55:03;;;;;;;6.93;3.90;;;1.40;95.10;;;;;;5042883;28;20049;-40
2021/04/12 05:57:50;;;;;;;;;;;1.50;94.70;;;;;;5042978;28;20132;-40
2021/04/12 06:00:29;;;;;;;6.38;4.15;;;1.60;94.30;;;;;;5042312;28;19968;-41
2021/04/12 06:03:01;;;;;;;5.53;3.30;;;1.70;94.30;;;;;;5045557;28;20048;-41
2021/04/12 06:06:11;;;;;;;4.75;2.60;;;1.80;94.10;;;;;;5013451;28;20120;-41
2021/04/12 06:09:09;;;;;;;7.72;4.45;;;2.00;93.70;;;;;;5034898;28;20049;-41
2021/04/12 06:12:18;;;;;;;5.97;3.50;;;2.30;93.20;;;;;;5008199;28;20056;-41
2021/04/12 06:14:58;;;;;;;40.03;33.30;;;2.50;92.70;;;;;;5009443;28;20429;-40
2021/04/12 06:17:58;;;;;;;7.22;2.83;;;2.70;93.00;;;;;;5019369;28;20616;-40
2021/04/12 06:20:49;;;;;;;21.30;14.18;;;2.90;92.00;;;;;;4982563;28;20518;-41
2021/04/12 06:23:39;;;;;;;19.88;13.02;;;3.10;92.20;;;;;;4977902;28;20656;-41
2021/04/12 06:26:36;;;;;;;12.35;6.93;;;3.40;92.30;;;;;;4979424;28;20096;-39
2021/04/12 06:29:23;;;;;;;4.85;1.98;;;3.60;92.00;;;;;;4925698;29;20143;-40
2021/04/12 06:31:59;;;;;;;5.28;3.83;;;3.80;91.20;;;;;;4927154;29;20437;-40
2021/04/12 06:34:54;;;;;;;6.90;4.10;;;4.00;90.90;;;;;;4929151;29;20188;-38
2021/04/12 06:37:48;;;;;;;9.88;4.60;;;4.10;90.20;;;;;;4928056;29;20738;-38
2021/04/12 06:40:33;;;;;;;8.07;3.13;;;4.30;89.40;;;;;;4928035;28;20066;-37
2021/04/12 06:44:04;;;;;;;10.48;4.53;;;4.50;89.90;;;;;;4926966;29;20521;-36
2021/04/12 06:47:02;;;;;;;5.05;2.50;;;4.80;88.20;;;;;;4909073;29;20512;-37
2021/04/12 06:49:37;;;;;;;6.22;2.35;;;4.90;86.80;;;;;;4915148;29;20063;-37
2021/04/12 06:52:47;;;;;;;5.93;1.65;;;5.00;85.00;;;;;;4910210;29;20062;-35
2021/04/12 06:55:23;;;;;;;5.38;3.00;;;5.30;84.80;;;;;;4908375;29;20094;-36
2021/04/12 06:58:04;;;;;;;6.13;1.65;;;5.70;84.50;;;;;;4895679;29;20056;-36
2021/04/12 07:01:03;;;;;;;5.15;1.83;;;5.90;84.80;;;;;;4888097;29;20044;-37
2021/04/12 07:04:09;;;;;;;6.85;1.90;;;6.30;82.90;;;;;;4881808;29;20053;-36
2021/04/12 07:06:54;;;;;;;5.63;2.22;;;6.80;83.90;;;;;;4939659;28;20100;-37
2021/04/12 07:09:58;;;;;;;3.22;1.35;;;7.10;78.20;;;;;;4966870;28;20138;-36
2021/04/12 07:13:00;;;;;;;5.45;1.55;;;7.20;76.10;;;;;;4966291;28;20415;-36
2021/04/12 07:16:03;;;;;;;3.20;1.52;;;7.50;76.70;;;;;;4964872;28;20082;-36
2021/04/12 07:18:47;;;;;;;4.50;1.77;;;7.80;75.20;;;;;;4965344;28;20635;-36
2021/04/12 07:21:31;;;;;;;4.10;1.30;;;8.20;73.90;;;;;;5028062;28;20042;-35
2021/04/12 07:25:03;;;;;;;5.15;1.75;;;8.60;76.60;;;;;;5027932;28;20057;-36
2021/04/12 07:27:54;;;;;;;8.20;1.48;;;8.90;70.50;;;;;;5029768;28;20497;-35
2021/04/12 07:30:23;;;;;;;6.38;1.27;;;9.10;67.90;;;;;;5011764;28;20053;-36
2021/04/12 07:33:12;;;;;;;5.00;1.20;;;9.10;68.30;;;;;;5029085;28;20065;-35
2021/04/12 07:36:11;;;;;;;14.80;11.13;;;9.60;68.20;;;;;;5030582;28;20049;-37
2021/04/12 07:38:56;;;;;;;7.93;3.40;;;9.60;66.20;;;;;;5025058;28;20061;-38
2021/04/12 07:41:40;;;;;;;6.80;2.92;;;9.50;64.20;;;;;;5025049;28;20120;-37
2021/04/12 07:44:28;;;;;;;6.50;1.42;;;9.90;66.40;;;;;;5032013;28;20083;-37
2021/04/12 07:47:25;;;;;;;5.60;1.95;;;10.10;65.10;;;;;;5026917;28;20053;-38
2021/04/12 07:50:46;;;;;;;5.45;1.52;;;10.20;64.00;;;;;;5024085;28;20072;-38
2021/04/12 07:53:41;;;;;;;3.95;1.00;;;9.70;61.10;;;;;;5025228;28;20148;-40
2021/04/12 07:56:34;;;;;;;6.85;1.35;;;10.10;67.40;;;;;;5009541;28;20073;-39
2021/04/12 07:59:08;;;;;;;6.97;1.70;;;10.20;63.10;;;;;;5026723;28;20055;-38
2021/04/12 08:02:02;;;;;;;5.13;1.73;;;10.30;64.90;;;;;;5038115;28;20060;-39
2021/04/12 08:04:51;;;;;;;4.63;1.50;;;9.90;59.70;;;;;;5026135;28;20705;-39
2021/04/12 08:07:54;;;;;;;5.88;1.52;;;10.00;60.80;;;;;;5024558;28;20136;-41
2021/04/12 08:10:34;;;;;;;6.55;2.78;;;10.60;62.20;;;;;;5004399;28;20054;-42
2021/04/12 08:13:30;;;;;;;6.00;1.58;;;10.60;60.00;;;;;;5019421;28;20572;-50
2021/04/12 08:16:29;;;;;;;3.60;1.23;;;10.70;60.80;;;;;;5023571;28;20049;-40
2021/04/12 08:19:44;;;;;;;5.60;1.40;;;10.80;58.40;;;;;;5020137;28;20050;-44
2021/04/12 08:22:28;;;;;;;6.75;1.23;;;10.40;55.30;;;;;;4932529;29;20078;-42
2021/04/12 08:25:35;;;;;;;5.05;1.30;;;10.10;56.60;;;;;;4935140;29;20051;-42
2021/04/12 08:28:38;;;;;;;5.70;1.20;;;10.30;55.50;;;;;;4864262;29;20057;-42
2021/04/12 08:31:25;;;;;;;5.07;1.30;;;9.90;56.30;;;;;;4835466;29;20586;-40
2021/04/12 08:34:24;;;;;;;5.38;1.67;;;10.10;57.60;;;;;;4849525;29;20140;-38
2021/04/12 08:37:32;;;;;;;19.95;13.50;;;9.10;55.40;;;;;;4839784;29;20131;-39
2021/04/12 08:40:18;;;;;;;8.38;2.67;;;8.60;57.60;;;;;;4839144;29;20053;-38
2021/04/12 08:42:56;;;;;;;7.00;1.08;;;9.00;58.50;;;;;;4836641;29;20065;-39
2021/04/12 08:46:11;;;;;;;6.82;1.17;;;8.80;57.90;;;;;;4846835;29;20106;-38
2021/04/12 08:48:48;;;;;;;6.18;1.23;;;9.70;57.70;;;;;;4838413;29;20091;-38
2021/04/12 08:51:36;;;;;;;5.05;1.40;;;10.40;56.10;;;;;;4839071;29;20132;-39
2021/04/12 08:54:25;;;;;;;3.63;1.10;;;10.00;57.30;;;;;;4831698;29;20205;-38
2021/04/12 08:57:24;;;;;;;5.18;1.00;;;9.80;55.00;;;;;;4831694;29;20058;-38
2021/04/12 09:00:22;;;;;;;4.47;1.08;;;9.70;52.70;;;;;;4948583;28;20050;-38
2021/04/12 09:03:25;;;;;;;4.85;1.45;;;9.30;55.50;;;;;;4954925;28;20870;-38
2021/04/12 09:06:28;;;;;;;5.03;1.17;;;8.50;57.10;;;;;;5033680;28;20409;-38
2021/04/12 09:09:06;;;;;;;5.80;1.80;;;8.20;60.60;;;;;;5026096;28;20506;-38
2021/04/12 09:11:41;;;;;;;6.70;2.08;;;8.80;59.10;;;;;;5032330;28;20057;-39
2021/04/12 09:14:38;;;;;;;5.70;1.80;;;9.60;58.20;;;;;;5034401;28;20508;-38
2021/04/12 09:17:23;;;;;;;4.65;1.20;;;10.10;56.00;;;;;;5036440;28;20049;-38
2021/04/12 09:20:15;;;;;;;6.45;1.70;;;10.00;55.50;;;;;;5030238;28;20481;-39
2021/04/12 09:22:59;;;;;;;5.68;1.10;;;9.10;55.40;;;;;;5027415;28;20494;-38
2021/04/12 09:25:47;;;;;;;4.90;1.42;;;7.90;57.80;;;;;;5033575;28;20037;-38
2021/04/12 09:28:42;;;;;;;3.83;1.67;;;7.40;61.90;;;;;;5028564;28;20129;-38
2021/04/12 09:31:33;;;;;;;5.63;1.35;;;7.50;63.20;;;;;;5034511;28;20505;-38
2021/04/12 09:34:42;;;;;;;6.45;1.42;;;7.40;63.40;;;;;;5028398;28;20049;-38
2021/04/12 09:37:38;;;;;;;4.88;1.40;;;7.60;65.30;;;;;;5030190;28;20073;-37
2021/04/12 09:40:34;;;;;;;6.72;1.40;;;8.90;64.40;;;;;;5023574;28;20595;-37
2021/04/12 09:43:31;;;;;;;5.50;2.97;;;9.10;61.80;;;;;;5030197;28;20493;-38
2021/04/12 09:46:25;;;;;;;4.47;1.60;;;9.00;55.80;;;;;;5035834;28;20049;-38
2021/04/12 09:49:07;;;;;;;19.23;12.55;;;8.90;56.50;;;;;;5033971;28;20060;-38
2021/04/12 09:52:06;;;;;;;7.07;1.98;;;9.00;56.20;;;;;;5036021;28;20048;-38
2021/04/12 09:55:19;;;;;;;5.00;1.83;;;8.70;56.90;;;;;;5030563;28;20049;-38
2021/04/12 09:57:57;;;;;;;;;;;8.10;54.40;;;;;;5036393;28;20474;-37
2021/04/12 10:00:55;;;;;;;2.63;0.93;;;7.80;56.00;;;;;;5035207;28;19921;-38
2021/04/12 10:04:12;;;;;;;3.90;1.13;;;7.60;57.60;;;;;;5034387;28;20049;-38
2021/04/12 10:06:50;;;;;;;3.03;0.88;;;7.50;56.20;;;;;;5009761;28;20073;-37
2021/04/12 10:09:38;;;;;;;5.15;1.05;;;8.70;53.70;;;;;;5005595;28;20132;-38
2021/04/12 10:12:37;;;;;;;3.25;1.10;;;9.80;54.00;;;;;;5011003;28;20041;-38
2021/04/12 10:15:21;;;;;;;5.72;1.13;;;10.90;51.70;;;;;;5000137;28;20064;-38
2021/04/12 10:17:59;;;;;;;3.40;0.65;;;10.40;50.20;;;;;;5006615;28;20050;-35
2021/04/12 10:20:33;;;;;;;2.40;0.90;;;9.30;49.00;;;;;;5005017;28;20045;-38
2021/04/12 10:23:05;;;;;;;2.78;0.68;;;8.80;53.40;;;;;;5009419;28;20144;-37
2021/04/12 10:25:48;;;;;;;4.45;0.82;;;8.90;55.50;;;;;;5005459;28;20183;-38
2021/04/12 10:28:28;;;;;;;4.18;0.90;;;9.00;56.30;;;;;;5006372;28;20053;-37
2021/04/12 10:31:02;;;;;;;13.98;8.05;;;9.20;56.10;;;;;;5005472;28;20124;-38
2021/04/12 10:33:53;;;;;;;11.90;6.70;;;10.30;55.80;;;;;;5008475;28;20059;-37
2021/04/12 10:36:29;;;;;;;3.92;1.33;;;11.40;52.80;;;;;;4989257;28;20073;-36
2021/04/12 10:39:06;;;;;;;4.35;1.02;;;11.80;50.70;;;;;;5009742;28;20053;-38
2021/04/12 10:41:49;;;;;;;3.65;1.55;;;11.80;47.50;;;;;;5006452;28;20054;-38
2021/04/12 10:44:44;;;;;;;3.80;0.70;;;12.40;47.80;;;;;;5025301;28;20053;-37
2021/04/12 10:47:27;;;;;;;4.97;1.35;;;11.50;47.00;;;;;;5034803;28;20056;-36
2021/04/12 10:50:25;;;;;;;6.00;1.40;;;10.40;49.80;;;;;;5028827;28;20179;-37
2021/04/12 10:53:19;;;;;;;3.25;1.23;;;9.80;53.10;;;;;;5018823;28;20050;-36
2021/04/12 10:56:06;;;;;;;3.70;1.35;;;9.20;56.90;;;;;;5024400;28;20046;-36
2021/04/12 10:58:52;;;;;;;4.13;1.10;;;9.80;54.20;;;;;;5024660;28;20072;-37
2021/04/12 11:01:53;;;;;;;2.25;0.80;;;10.80;52.90;;;;;;5014646;28;20058;-36
2021/04/12 11:05:09;;;;;;;4.38;1.20;;;9.40;55.50;;;;;;4977067;28;20066;-37
2021/04/12 11:08:11;;;;;;;4.90;0.85;;;8.70;59.60;;;;;;4968382;28;20059;-35
2021/04/12 11:11:15;;;;;;;1.23;0.65;;;8.20;63.90;;;;;;4966664;28;20560;-35
2021/04/12 11:14:11;;;;;;;4.75;1.15;;;7.90;64.80;;;;;;4962005;28;20051;-37
2021/04/12 11:16:52;;;;;;;2.72;0.70;;;7.90;66.30;;;;;;4956648;28;20051;-37
2021/04/12 11:19:57;;;;;;;1.67;0.57;;;7.90;65.00;;;;;;4973231;28;20950;-36
2021/04/12 11:22:40;;;;;;;3.63;0.90;;;8.20;64.60;;;;;;4967327;28;20046;-38
2021/04/12 11:25:28;;;;;;;2.03;0.55;;;7.80;62.10;;;;;;4965144;28;20050;-38
2021/04/12 11:28:22;;;;;;;2.92;0.70;;;7.90;63.20;;;;;;4964909;28;20101;-37
2021/04/12 11:30:54;;;;;;;2.10;0.90;;;7.80;62.20;;;;;;4917379;29;20106;-37
2021/04/12 11:33:37;;;;;;;;;;;7.50;63.20;;;;;;4926962;29;20054;-37
2021/04/12 11:36:20;;;;;;;2.40;1.00;;;7.50;63.90;;;;;;4921597;28;19957;-38
2021/04/12 11:39:14;;;;;;;3.83;0.75;;;7.50;64.80;;;;;;4929856;28;20048;-37
2021/04/12 11:42:09;;;;;;;4.97;0.85;;;7.50;65.80;;;;;;4982469;28;20051;-36
2021/04/12 11:44:50;;;;;;;3.28;1.25;;;7.40;66.00;;;;;;5014381;28;20137;-36
2021/04/12 11:47:22;;;;;;;4.50;1.52;;;7.40;66.20;;;;;;5028098;28;20457;-37
2021/04/12 11:50:00;;;;;;;3.00;1.58;;;7.70;65.40;;;;;;5028323;28;20054;-37
2021/04/12 11:52:35;;;;;;;2.40;0.80;;;8.50;63.50;;;;;;5027886;28;20564;-37
2021/04/12 11:55:30;;;;;;;4.63;2.17;;;9.30;62.70;;;;;;5027573;28;20529;-37
2021/04/12 11:58:22;;;;;;;2.80;1.00;;;10.10;60.30;;;;;;5022458;28;20049;-38
2021/04/12 12:01:13;;;;;;;2.92;1.25;;;10.90;55.60;;;;;;5027612;28;20848;-38
2021/04/12 12:03:41;;;;;;;3.88;0.90;;;11.40;54.60;;;;;;5028186;28;20049;-39
2021/04/12 12:06:15;;;;;;;2.25;0.70;;;10.60;55.80;;;;;;5029819;28;20391;-38
2021/04/12 12:08:56;;;;;;;3.83;0.85;;;10.60;56.60;;;;;;5023313;28;20080;-38
2021/04/12 12:11:37;;;;;;;3.78;1.27;;;9.80;59.50;;;;;;5026021;28;20049;-38
2021/04/12 12:14:23;;;;;;;3.08;0.98;;;9.30;62.10;;;;;;5025405;28;20136;-37
2021/04/12 12:16:54;;;;;;;2.40;0.90;;;8.90;64.20;;;;;;5026444;28;20044;-37
2021/04/12 12:19:39;;;;;;;3.33;0.70;;;8.20;65.00;;;;;;5027611;28;20057;-37
2021/04/12 12:22:12;;;;;;;5.28;0.77;;;7.90;63.10;;;;;;5028066;28;20049;-38
2021/04/12 12:24:58;;;;;;;4.43;2.53;;;7.50;66.30;;;;;;5020597;28;20429;-37
2021/04/12 12:28:07;;;;;;;1.95;0.80;;;7.60;66.80;;;;;;5023356;28;20132;-37
2021/04/12 12:31:03;;;;;;;4.22;2.08;;;8.90;64.10;;;;;;5011982;28;20057;-37
2021/04/12 12:33:38;;;;;;;4.97;1.27;;;10.80;59.20;;;;;;5020658;28;20077;-38
2021/04/12 12:36:20;;;;;;;3.63;1.38;;;11.30;53.40;;;;;;5008631;28;20045;-39
2021/04/12 12:38:58;;;;;;;2.58;0.60;;;11.40;50.40;;;;;;5035505;28;20049;-39
2021/04/12 12:41:29;;;;;;;2.15;0.80;;;11.90;47.50;;;;;;5018857;28;20742;-39
2021/04/12 12:44:08;;;;;;;2.58;1.25;;;11.80;48.20;;;;;;5019109;28;20045;-37
2021/04/12 12:46:39;;;;;;;5.95;0.60;;;11.60;46.50;;;;;;5018341;28;20531;-38
2021/04/12 12:49:30;;;;;;;2.97;0.60;;;11.20;46.30;;;;;;4993324;28;20057;-37
2021/04/12 12:52:03;;;;;;;2.30;0.60;;;12.30;48.90;;;;;;5011591;28;20071;-37
2021/04/12 12:54:47;;;;;;;3.70;0.50;;;12.20;50.70;;;;;;5034084;28;20045;-35
2021/04/12 12:57:25;;;;;;;3.55;0.60;;;12.90;49.20;;;;;;5014739;28;20103;-38
2021/04/12 12:59:53;;;;;;;2.20;0.60;;;12.10;48.40;;;;;;5014913;28;20628;-37
2021/04/12 13:02:24;;;;;;;44.95;36.28;;;11.80;51.40;;;;;;5005294;28;20518;-37
2021/04/12 13:04:59;;;;;;;6.75;3.00;;;11.50;53.20;;;;;;5022077;28;20055;-37
2021/04/12 13:07:32;;;;;;;3.25;0.95;;;12.30;54.10;;;;;;5017692;28;20055;-37
2021/04/12 13:10:02;;;;;;;2.65;1.15;;;11.80;54.30;;;;;;5008599;28;20536;-37
2021/04/12 13:12:40;;;;;;;2.05;0.50;;;10.90;57.60;;;;;;5032229;28;20459;-39
2021/04/12 13:15:26;;;;;;;2.45;0.50;;;10.10;58.90;;;;;;5019581;28;20107;-38
2021/04/12 13:18:07;;;;;;;24.40;20.05;;;10.00;60.30;;;;;;5021842;28;20464;-38
2021/04/12 13:20:47;;;;;;;1.38;0.60;;;10.30;60.80;;;;;;5020985;28;20045;-37
2021/04/12 13:23:13;;;;;;;2.28;0.80;;;11.20;60.10;;;;;;5041072;28;20052;-39
2021/04/12 13:25:50;;;;;;;4.50;1.67;;;10.90;57.50;;;;;;5034918;28;20112;-38
2021/04/12 13:28:35;;;;;;;2.92;0.73;;;9.80;58.00;;;;;;5026525;28;20065;-37
2021/04/12 13:31:05;;;;;;;1.60;0.60;;;8.70;64.00;;;;;;5018950;28;20053;-38
2021/04/12 13:33:49;;;;;;;3.03;0.90;;;8.50;67.50;;;;;;5038195;28;20045;-38
2021/04/12 13:36:35;;;;;;;4.25;0.82;;;8.00;67.90;;;;;;5030864;28;20055;-36
2021/04/12 13:39:12;;;;;;;1.40;0.55;;;8.50;68.70;;;;;;5044549;28;20101;-37
2021/04/12 13:41:47;;;;;;;2.75;0.60;;;8.70;64.20;;;;;;5025050;28;20049;-37
2021/04/12 13:44:31;;;;;;;1.02;0.50;;;9.70;62.70;;;;;;5028348;28;20078;-37
2021/04/12 13:47:07;;;;;;;3.03;0.77;;;11.40;59.40;;;;;;5029152;28;20403;-38
2021/04/12 13:49:48;;;;;;;3.83;0.60;;;11.80;55.10;;;;;;5031735;28;20052;-37
2021/04/12 13:52:43;;;;;;;2.63;0.60;;;11.90;52.10;;;;;;5030493;28;20057;-38
2021/04/12 13:55:13;;;;;;;4.40;0.90;;;11.90;49.50;;;;;;5037735;28;20060;-37
2021/04/12 13:57:50;;;;;;;3.10;1.73;;;10.80;52.30;;;;;;5032724;28;20041;-36
2021/04/12 14:00:22;;;;;;;1.27;0.40;;;9.80;52.50;;;;;;5038303;28;20716;-36
2021/04/12 14:02:56;;;;;;;1.50;0.65;;;8.80;52.30;;;;;;5035933;28;20060;-36
2021/04/12 14:05:34;;;;;;;6.80;2.58;;;8.30;55.60;;;;;;5032153;28;20056;-36
2021/04/12 14:08:22;;;;;;;1.70;0.60;;;8.00;59.80;;;;;;5024079;28;20442;-36
2021/04/12 14:11:00;;;;;;;2.53;0.65;;;7.70;63.70;;;;;;5023645;28;20103;-35
2021/04/12 14:13:30;;;;;;;0.85;0.45;;;7.70;63.90;;;;;;5029584;28;20103;-36
2021/04/12 14:16:19;;;;;;;2.40;0.50;;;7.90;63.40;;;;;;5037648;28;20600;-35
2021/04/12 14:19:05;;;;;;;2.13;0.63;;;8.30;62.90;;;;;;5036392;28;20052;-36
2021/04/12 14:22:06;;;;;;;0.82;0.47;;;8.50;61.50;;;;;;5030555;28;20603;-36
2021/04/12 14:24:45;;;;;;;5.10;0.80;;;8.90;60.40;;;;;;5033773;28;20064;-36
2021/04/12 14:27:19;;;;;;;1.30;0.52;;;8.50;60.10;;;;;;5027237;28;20045;-36
2021/04/12 14:29:48;;;;;;;2.00;0.50;;;8.50;59.90;;;;;;5034204;28;20504;-36
2021/04/12 14:32:25;;;;;;;2.08;0.75;;;8.40;61.30;;;;;;5036001;28;20041;-35
2021/04/12 14:35:06;;;;;;;3.60;0.80;;;8.10;61.90;;;;;;5032971;28;20386;-36
2021/04/12 14:37:38;;;;;;;2.63;0.70;;;8.10;61.80;;;;;;5029430;28;20044;-36
2021/04/12 14:40:11;;;;;;;5.88;1.08;;;8.30;62.40;;;;;;5036471;28;20050;-35
2021/04/12 14:43:01;;;;;;;1.88;0.73;;;9.30;60.60;;;;;;5034180;28;20053;-35